sensor_id;sensor_type;location;lat;lon;timestamp;pressure;altitude;pressure_sealevel;temperature;humidity
4199;BME280;2113;50.946;14.610;2022-08-27T00:01:58;96725.28;;;19.26;74.77
4199;BME280;2113;50.946;14.610;2022-08-27T00:04:27;96716.31;;;19.28;74.74
4199;BME280;2113;50.946;14.610;2022-08-27T00:06:55;96712.81;;;19.28;74.99
4199;BME280;2113;50.946;14.610;2022-08-27T00:09:23;96713.41;;;19.43;74.80
4199;BME280;2113;50.946;14.610;2022-08-27T00:11:54;96713.19;;;19.34;74.65
4199;BME280;2113;50.946;14.610;2022-08-27T00:14:23;96705.06;;;19.38;74.36
4199;BME280;2113;50.946;14.610;2022-08-27T00:16:52;96709.34;;;19.27;74.83
4199;BME280;2113;50.946;14.610;2022-08-27T00:19:20;96708.88;;;19.33;74.65
4199;BME280;2113;50.946;14.610;2022-08-27T00:21:48;96706.09;;;19.24;74.64
4199;BME280;2113;50.946;14.610;2022-08-27T00:24:16;96714.50;;;19.40;74.48
4199;BME280;2113;50.946;14.610;2022-08-27T00:26:44;96712.09;;;19.37;74.25
4199;BME280;2113;50.946;14.610;2022-08-27T00:29:13;96704.69;;;19.31;74.44
4199;BME280;2113;50.946;14.610;2022-08-27T00:31:41;96697.75;;;19.30;74.15
4199;BME280;2113;50.946;14.610;2022-08-27T00:34:12;96693.78;;;19.24;74.08
4199;BME280;2113;50.946;14.610;2022-08-27T00:36:41;96695.94;;;19.19;74.42
4199;BME280;2113;50.946;14.610;2022-08-27T00:39:09;96697.38;;;19.23;74.35
4199;BME280;2113;50.946;14.610;2022-08-27T00:41:37;96698.06;;;19.14;74.42
4199;BME280;2113;50.946;14.610;2022-08-27T00:44:06;96691.38;;;19.10;74.74
4199;BME280;2113;50.946;14.610;2022-08-27T00:46:38;96692.56;;;19.17;74.76
4199;BME280;2113;50.946;14.610;2022-08-27T00:49:10;96692.09;;;19.23;74.21
4199;BME280;2113;50.946;14.610;2022-08-27T00:51:39;96693.06;;;19.11;74.41
4199;BME280;2113;50.946;14.610;2022-08-27T00:54:08;96691.16;;;19.13;74.49
4199;BME280;2113;50.946;14.610;2022-08-27T00:56:44;96688.72;;;19.10;74.86
4199;BME280;2113;50.946;14.610;2022-08-27T00:59:20;96693.78;;;19.24;74.49
4199;BME280;2113;50.946;14.610;2022-08-27T01:01:50;96698.06;;;19.14;74.86
4199;BME280;2113;50.946;14.610;2022-08-27T01:04:37;96690.75;;;19.06;75.19
4199;BME280;2113;50.946;14.610;2022-08-27T01:07:06;96700.00;;;19.12;75.29
4199;BME280;2113;50.946;14.610;2022-08-27T01:09:35;96690.75;;;19.06;75.88
4199;BME280;2113;50.946;14.610;2022-08-27T01:12:05;96695.22;;;19.28;74.87
4199;BME280;2113;50.946;14.610;2022-08-27T01:14:33;96691.72;;;19.28;74.83
4199;BME280;2113;50.946;14.610;2022-08-27T01:17:05;96697.84;;;19.28;74.77
4199;BME280;2113;50.946;14.610;2022-08-27T01:19:39;96699.41;;;19.31;74.78
4199;BME280;2113;50.946;14.610;2022-08-27T01:22:12;96701.78;;;19.00;76.11
4199;BME280;2113;50.946;14.610;2022-08-27T01:24:51;96704.91;;;19.39;75.26
4199;BME280;2113;50.946;14.610;2022-08-27T01:27:24;96703.97;;;19.40;74.90
4199;BME280;2113;50.946;14.610;2022-08-27T01:29:53;96701.22;;;19.42;74.50
4199;BME280;2113;50.946;14.610;2022-08-27T01:32:23;96707.66;;;19.49;74.45
4199;BME280;2113;50.946;14.610;2022-08-27T01:34:53;96706.97;;;19.24;74.58
4199;BME280;2113;50.946;14.610;2022-08-27T01:37:23;96705.75;;;19.28;74.93
4199;BME280;2113;50.946;14.610;2022-08-27T01:39:56;96705.88;;;19.15;74.68
4199;BME280;2113;50.946;14.610;2022-08-27T01:42:27;96704.78;;;19.29;74.54
4199;BME280;2113;50.946;14.610;2022-08-27T01:44:59;96700.84;;;19.24;74.55
4199;BME280;2113;50.946;14.610;2022-08-27T01:47:31;96700.47;;;19.17;74.81
4199;BME280;2113;50.946;14.610;2022-08-27T01:50:00;96709.31;;;19.05;75.26
4199;BME280;2113;50.946;14.610;2022-08-27T01:52:29;96707.66;;;19.04;75.38
4199;BME280;2113;50.946;14.610;2022-08-27T01:54:58;96701.06;;;18.98;75.56
4199;BME280;2113;50.946;14.610;2022-08-27T01:57:27;96700.09;;;18.99;75.58
4199;BME280;2113;50.946;14.610;2022-08-27T01:59:55;96696.53;;;18.76;76.43
4199;BME280;2113;50.946;14.610;2022-08-27T02:02:23;96690.63;;;18.96;75.86
4199;BME280;2113;50.946;14.610;2022-08-27T02:04:51;96686.66;;;18.91;75.61
4199;BME280;2113;50.946;14.610;2022-08-27T02:07:20;96686.00;;;18.76;76.31
4199;BME280;2113;50.946;14.610;2022-08-27T02:09:47;96683.78;;;18.83;76.07
4199;BME280;2113;50.946;14.610;2022-08-27T02:12:17;96685.59;;;18.93;76.10
4199;BME280;2113;50.946;14.610;2022-08-27T02:14:44;96687.75;;;18.88;76.01
4199;BME280;2113;50.946;14.610;2022-08-27T02:17:12;96683.69;;;18.95;75.75
4199;BME280;2113;50.946;14.610;2022-08-27T02:19:40;96690.84;;;18.93;75.66
4199;BME280;2113;50.946;14.610;2022-08-27T02:22:08;96682.00;;;18.83;75.78
4199;BME280;2113;50.946;14.610;2022-08-27T02:24:36;96688.28;;;18.69;76.08
4199;BME280;2113;50.946;14.610;2022-08-27T02:27:04;96683.00;;;18.69;76.21
4199;BME280;2113;50.946;14.610;2022-08-27T02:29:35;96680.88;;;18.74;75.95
4199;BME280;2113;50.946;14.610;2022-08-27T02:32:03;96687.91;;;18.74;76.07
4199;BME280;2113;50.946;14.610;2022-08-27T02:34:31;96682.53;;;18.75;75.75
4199;BME280;2113;50.946;14.610;2022-08-27T02:37:00;96679.06;;;18.75;75.84
4199;BME280;2113;50.946;14.610;2022-08-27T02:39:28;96678.81;;;18.67;76.42
4199;BME280;2113;50.946;14.610;2022-08-27T02:41:57;96672.44;;;18.82;76.02
4199;BME280;2113;50.946;14.610;2022-08-27T02:44:25;96682.47;;;18.88;75.74
4199;BME280;2113;50.946;14.610;2022-08-27T02:46:55;96682.03;;;19.06;75.68
4199;BME280;2113;50.946;14.610;2022-08-27T02:49:23;96669.06;;;19.03;75.90
4199;BME280;2113;50.946;14.610;2022-08-27T02:51:52;96672.91;;;18.98;76.23
4199;BME280;2113;50.946;14.610;2022-08-27T02:54:20;96667.66;;;18.98;76.27
4199;BME280;2113;50.946;14.610;2022-08-27T02:56:48;96665.25;;;19.07;76.21
4199;BME280;2113;50.946;14.610;2022-08-27T02:59:16;96660.84;;;19.07;76.18
4199;BME280;2113;50.946;14.610;2022-08-27T03:01:45;96659.66;;;19.23;75.50
4199;BME280;2113;50.946;14.610;2022-08-27T03:04:15;96669.56;;;19.08;75.75
4199;BME280;2113;50.946;14.610;2022-08-27T03:06:44;96670.53;;;19.18;75.81
4199;BME280;2113;50.946;14.610;2022-08-27T03:09:12;96672.22;;;19.19;75.48
4199;BME280;2113;50.946;14.610;2022-08-27T03:11:41;96680.94;;;19.20;75.17
4199;BME280;2113;50.946;14.610;2022-08-27T03:14:09;96683.00;;;19.27;74.90
4199;BME280;2113;50.946;14.610;2022-08-27T03:16:37;96686.94;;;19.22;74.72
4199;BME280;2113;50.946;14.610;2022-08-27T03:19:05;96688.94;;;18.84;75.32
4199;BME280;2113;50.946;14.610;2022-08-27T03:21:34;96698.50;;;18.85;75.90
4199;BME280;2113;50.946;14.610;2022-08-27T03:24:04;96698.94;;;18.79;75.58
4199;BME280;2113;50.946;14.610;2022-08-27T03:26:37;96699.41;;;18.73;75.75
4199;BME280;2113;50.946;14.610;2022-08-27T03:29:05;96697.25;;;18.78;75.93
4199;BME280;2113;50.946;14.610;2022-08-27T03:31:34;96700.19;;;18.86;76.18
4199;BME280;2113;50.946;14.610;2022-08-27T03:34:04;96704.53;;;18.98;76.01
4199;BME280;2113;50.946;14.610;2022-08-27T03:36:37;96699.41;;;19.20;75.21
4199;BME280;2113;50.946;14.610;2022-08-27T03:39:04;96704.66;;;19.20;75.15
4199;BME280;2113;50.946;14.610;2022-08-27T03:41:32;96701.31;;;19.06;75.21
4199;BME280;2113;50.946;14.610;2022-08-27T03:44:20;96697.25;;;19.13;74.98
4199;BME280;2113;50.946;14.610;2022-08-27T03:46:48;96693.06;;;19.11;75.14
4199;BME280;2113;50.946;14.610;2022-08-27T03:49:16;96692.31;;;18.97;75.12
4199;BME280;2113;50.946;14.610;2022-08-27T03:51:48;96699.25;;;18.98;74.96
4199;BME280;2113;50.946;14.610;2022-08-27T03:54:17;96711.06;;;18.82;75.02
4199;BME280;2113;50.946;14.610;2022-08-27T03:56:44;96705.13;;;18.55;74.97
4199;BME280;2113;50.946;14.610;2022-08-27T03:59:12;96711.88;;;18.47;75.42
4199;BME280;2113;50.946;14.610;2022-08-27T04:01:41;96716.13;;;18.61;75.13
4199;BME280;2113;50.946;14.610;2022-08-27T04:04:10;96713.41;;;18.73;74.61
4199;BME280;2113;50.946;14.610;2022-08-27T04:06:38;96714.47;;;18.59;74.67
4199;BME280;2113;50.946;14.610;2022-08-27T04:09:08;96708.94;;;18.63;75.16
4199;BME280;2113;50.946;14.610;2022-08-27T04:11:36;96720.94;;;18.67;75.67
4199;BME280;2113;50.946;14.610;2022-08-27T04:14:04;96718.13;;;18.81;75.49
4199;BME280;2113;50.946;14.610;2022-08-27T04:16:53;96721.78;;;19.03;74.98
4199;BME280;2113;50.946;14.610;2022-08-27T04:19:21;96720.25;;;19.11;74.94
4199;BME280;2113;50.946;14.610;2022-08-27T04:21:57;96722.75;;;19.13;75.14
4199;BME280;2113;50.946;14.610;2022-08-27T04:24:27;96723.50;;;19.26;75.18
4199;BME280;2113;50.946;14.610;2022-08-27T04:26:55;96727.69;;;19.29;75.27
4199;BME280;2113;50.946;14.610;2022-08-27T04:29:23;96727.69;;;19.29;75.45
4199;BME280;2113;50.946;14.610;2022-08-27T04:31:52;96726.72;;;19.19;75.75
4199;BME280;2113;50.946;14.610;2022-08-27T04:34:22;96729.47;;;19.17;76.28
4199;BME280;2113;50.946;14.610;2022-08-27T04:36:53;96735.22;;;19.33;75.65
4199;BME280;2113;50.946;14.610;2022-08-27T04:39:21;96733.56;;;19.44;75.73
4199;BME280;2113;50.946;14.610;2022-08-27T04:41:52;96733.06;;;19.39;75.46
4199;BME280;2113;50.946;14.610;2022-08-27T04:44:21;96734.38;;;19.33;76.14
4199;BME280;2113;50.946;14.610;2022-08-27T04:46:53;96730.34;;;19.51;75.90
4199;BME280;2113;50.946;14.610;2022-08-27T04:49:22;96722.41;;;19.63;75.78
4199;BME280;2113;50.946;14.610;2022-08-27T04:51:50;96726.84;;;19.85;75.16
4199;BME280;2113;50.946;14.610;2022-08-27T04:54:18;96725.63;;;19.89;74.83
4199;BME280;2113;50.946;14.610;2022-08-27T04:57:00;96713.66;;;19.96;74.83
4199;BME280;2113;50.946;14.610;2022-08-27T04:59:29;96716.03;;;19.99;74.63
4199;BME280;2113;50.946;14.610;2022-08-27T05:01:57;96707.41;;;20.08;74.42
4199;BME280;2113;50.946;14.610;2022-08-27T05:04:25;96702.47;;;20.04;74.59
4199;BME280;2113;50.946;14.610;2022-08-27T05:06:52;96708.34;;;20.07;74.80
4199;BME280;2113;50.946;14.610;2022-08-27T05:09:21;96701.56;;;19.93;74.76
4199;BME280;2113;50.946;14.610;2022-08-27T05:11:52;96697.16;;;20.15;74.83
4199;BME280;2113;50.946;14.610;2022-08-27T05:14:22;96696.06;;;20.18;75.08
4199;BME280;2113;50.946;14.610;2022-08-27T05:16:55;96699.56;;;20.18;74.94
4199;BME280;2113;50.946;14.610;2022-08-27T05:19:24;96698.88;;;20.05;75.54
4199;BME280;2113;50.946;14.610;2022-08-27T05:21:52;96691.34;;;20.32;75.63
4199;BME280;2113;50.946;14.610;2022-08-27T05:24:20;96689.66;;;19.99;75.94
4199;BME280;2113;50.946;14.610;2022-08-27T05:26:49;96691.81;;;19.94;76.24
4199;BME280;2113;50.946;14.610;2022-08-27T05:29:17;96691.81;;;19.94;76.53
4199;BME280;2113;50.946;14.610;2022-08-27T05:31:47;96684.16;;;20.23;75.65
4199;BME280;2113;50.946;14.610;2022-08-27T05:34:41;96684.81;;;20.15;75.71
4199;BME280;2113;50.946;14.610;2022-08-27T05:37:09;96676.06;;;20.15;75.65
4199;BME280;2113;50.946;14.610;2022-08-27T05:39:37;96684.41;;;20.64;74.35
4199;BME280;2113;50.946;14.610;2022-08-27T05:42:05;96683.50;;;20.96;73.16
4199;BME280;2113;50.946;14.610;2022-08-27T05:44:33;96676.22;;;20.88;72.69
4199;BME280;2113;50.946;14.610;2022-08-27T05:47:09;96669.50;;;20.84;72.63
4199;BME280;2113;50.946;14.610;2022-08-27T05:49:37;96671.41;;;21.24;72.03
4199;BME280;2113;50.946;14.610;2022-08-27T05:52:07;96672.22;;;21.24;71.77
4199;BME280;2113;50.946;14.610;2022-08-27T05:54:36;96682.13;;;21.32;71.14
4199;BME280;2113;50.946;14.610;2022-08-27T05:57:04;96684.56;;;21.76;70.41
4199;BME280;2113;50.946;14.610;2022-08-27T05:59:32;96679.63;;;22.12;68.72
4199;BME280;2113;50.946;14.610;2022-08-27T06:02:19;96688.97;;;22.16;68.74
4199;BME280;2113;50.946;14.610;2022-08-27T06:04:47;96686.09;;;22.28;68.74
4199;BME280;2113;50.946;14.610;2022-08-27T06:07:15;96695.41;;;22.42;67.95
4199;BME280;2113;50.946;14.610;2022-08-27T06:09:43;96698.19;;;22.51;68.22
4199;BME280;2113;50.946;14.610;2022-08-27T06:12:11;96695.16;;;22.45;67.56
4199;BME280;2113;50.946;14.610;2022-08-27T06:14:39;96691.50;;;22.66;67.55
4199;BME280;2113;50.946;14.610;2022-08-27T06:17:06;96681.72;;;22.96;66.45
4199;BME280;2113;50.946;14.610;2022-08-27T06:19:36;96694.03;;;22.58;67.30
4199;BME280;2113;50.946;14.610;2022-08-27T06:22:04;96690.94;;;22.92;67.59
4199;BME280;2113;50.946;14.610;2022-08-27T06:24:36;96692.25;;;23.25;66.87
4199;BME280;2113;50.946;14.610;2022-08-27T06:27:05;96687.84;;;24.09;64.49
4199;BME280;2113;50.946;14.610;2022-08-27T06:29:33;96687.88;;;24.62;63.04
4199;BME280;2113;50.946;14.610;2022-08-27T06:32:02;96699.72;;;24.68;61.69
4199;BME280;2113;50.946;14.610;2022-08-27T06:34:32;96698.25;;;24.92;62.09
4199;BME280;2113;50.946;14.610;2022-08-27T06:37:01;96698.09;;;24.21;63.61
4199;BME280;2113;50.946;14.610;2022-08-27T06:39:29;96696.88;;;24.16;64.18
4199;BME280;2113;50.946;14.610;2022-08-27T06:41:58;96689.69;;;24.44;63.58
4199;BME280;2113;50.946;14.610;2022-08-27T06:44:31;96691.50;;;24.43;63.05
4199;BME280;2113;50.946;14.610;2022-08-27T06:46:59;96695.19;;;24.15;63.95
4199;BME280;2113;50.946;14.610;2022-08-27T06:49:29;96698.31;;;24.28;64.31
4199;BME280;2113;50.946;14.610;2022-08-27T06:52:00;96695.59;;;24.92;61.93
4199;BME280;2113;50.946;14.610;2022-08-27T06:54:29;96697.91;;;24.69;61.92
4199;BME280;2113;50.946;14.610;2022-08-27T06:56:58;96696.06;;;25.13;61.15
4199;BME280;2113;50.946;14.610;2022-08-27T06:59:26;96697.00;;;25.56;59.62
4199;BME280;2113;50.946;14.610;2022-08-27T07:01:54;96700.16;;;24.99;60.81
4199;BME280;2113;50.946;14.610;2022-08-27T07:04:24;96701.44;;;26.16;58.51
4199;BME280;2113;50.946;14.610;2022-08-27T07:07:00;96701.31;;;25.49;59.67
4199;BME280;2113;50.946;14.610;2022-08-27T07:09:29;96710.78;;;24.99;61.31
4199;BME280;2113;50.946;14.610;2022-08-27T07:11:58;96708.53;;;25.65;59.46
4199;BME280;2113;50.946;14.610;2022-08-27T07:14:27;96708.97;;;26.29;57.82
4199;BME280;2113;50.946;14.610;2022-08-27T07:17:02;96716.34;;;25.58;59.07
4199;BME280;2113;50.946;14.610;2022-08-27T07:19:31;96716.41;;;25.75;59.60
4199;BME280;2113;50.946;14.610;2022-08-27T07:22:07;96703.81;;;27.18;55.73
4199;BME280;2113;50.946;14.610;2022-08-27T07:24:36;96689.13;;;32.13;43.50
4199;BME280;2113;50.946;14.610;2022-08-27T07:27:04;96697.16;;;31.37;42.18
4199;BME280;2113;50.946;14.610;2022-08-27T07:29:32;96708.38;;;29.14;49.50
4199;BME280;2113;50.946;14.610;2022-08-27T07:32:02;96707.97;;;27.21;53.72
4199;BME280;2113;50.946;14.610;2022-08-27T07:34:31;96710.00;;;25.94;56.60
4199;BME280;2113;50.946;14.610;2022-08-27T07:36:58;96716.81;;;25.62;58.71
4199;BME280;2113;50.946;14.610;2022-08-27T07:39:29;96718.25;;;25.83;57.70
4199;BME280;2113;50.946;14.610;2022-08-27T07:41:57;96710.78;;;25.52;59.07
4199;BME280;2113;50.946;14.610;2022-08-27T07:44:42;96711.84;;;25.93;59.00
4199;BME280;2113;50.946;14.610;2022-08-27T07:47:10;96706.84;;;25.30;58.76
4199;BME280;2113;50.946;14.610;2022-08-27T07:49:39;96706.38;;;25.95;58.47
4199;BME280;2113;50.946;14.610;2022-08-27T07:52:07;96713.03;;;26.99;56.62
4199;BME280;2113;50.946;14.610;2022-08-27T07:54:36;96711.63;;;26.46;55.79
4199;BME280;2113;50.946;14.610;2022-08-27T07:57:04;96712.00;;;27.17;53.44
4199;BME280;2113;50.946;14.610;2022-08-27T07:59:33;96714.81;;;27.15;54.11
4199;BME280;2113;50.946;14.610;2022-08-27T08:02:02;96721.78;;;28.05;52.49
4199;BME280;2113;50.946;14.610;2022-08-27T08:04:30;96721.41;;;28.47;49.67
4199;BME280;2113;50.946;14.610;2022-08-27T08:06:58;96723.81;;;28.03;50.12
4199;BME280;2113;50.946;14.610;2022-08-27T08:09:26;96727.59;;;27.61;50.64
4199;BME280;2113;50.946;14.610;2022-08-27T08:11:55;96726.34;;;27.40;52.62
4199;BME280;2113;50.946;14.610;2022-08-27T08:14:23;96735.03;;;27.18;53.07
4199;BME280;2113;50.946;14.610;2022-08-27T08:16:51;96730.84;;;27.15;51.50
4199;BME280;2113;50.946;14.610;2022-08-27T08:19:19;96740.19;;;26.86;55.14
4199;BME280;2113;50.946;14.610;2022-08-27T08:21:47;96737.53;;;26.11;55.96
4199;BME280;2113;50.946;14.610;2022-08-27T08:24:25;96739.78;;;25.89;56.93
4199;BME280;2113;50.946;14.610;2022-08-27T08:26:53;96734.75;;;25.86;55.54
4199;BME280;2113;50.946;14.610;2022-08-27T08:29:22;96734.59;;;25.53;57.10
4199;BME280;2113;50.946;14.610;2022-08-27T08:31:50;96737.81;;;25.39;57.31
4199;BME280;2113;50.946;14.610;2022-08-27T08:34:18;96736.66;;;25.15;58.63
4199;BME280;2113;50.946;14.610;2022-08-27T08:36:47;96729.91;;;25.47;58.69
4199;BME280;2113;50.946;14.610;2022-08-27T08:39:21;96730.72;;;25.74;57.42
4199;BME280;2113;50.946;14.610;2022-08-27T08:41:52;96733.00;;;25.95;58.04
4199;BME280;2113;50.946;14.610;2022-08-27T08:44:27;96728.22;;;26.15;58.34
4199;BME280;2113;50.946;14.610;2022-08-27T08:47:01;96735.59;;;26.29;56.36
4199;BME280;2113;50.946;14.610;2022-08-27T08:49:45;96731.41;;;26.27;57.30
4199;BME280;2113;50.946;14.610;2022-08-27T08:52:22;96728.63;;;26.45;56.38
4199;BME280;2113;50.946;14.610;2022-08-27T08:55:04;96734.56;;;26.22;55.85
4199;BME280;2113;50.946;14.610;2022-08-27T08:57:38;96728.59;;;26.20;57.58
4199;BME280;2113;50.946;14.610;2022-08-27T09:00:12;96735.63;;;26.37;56.84
4199;BME280;2113;50.946;14.610;2022-08-27T09:02:46;96739.19;;;26.12;55.98
4199;BME280;2113;50.946;14.610;2022-08-27T09:05:16;96735.47;;;25.96;57.09
4199;BME280;2113;50.946;14.610;2022-08-27T09:07:49;96737.22;;;26.14;57.24
4199;BME280;2113;50.946;14.610;2022-08-27T09:10:43;96733.06;;;25.85;58.72
4199;BME280;2113;50.946;14.610;2022-08-27T09:13:19;96731.91;;;26.22;57.15
4199;BME280;2113;50.946;14.610;2022-08-27T09:15:51;96736.97;;;26.50;55.72
4199;BME280;2113;50.946;14.610;2022-08-27T09:18:21;96738.94;;;26.48;54.63
4199;BME280;2113;50.946;14.610;2022-08-27T09:20:58;96735.66;;;25.95;54.87
4199;BME280;2113;50.946;14.610;2022-08-27T09:23:39;96732.00;;;27.12;53.03
4199;BME280;2113;50.946;14.610;2022-08-27T09:26:19;96735.34;;;26.90;51.88
4199;BME280;2113;50.946;14.610;2022-08-27T09:28:47;96728.97;;;27.57;50.21
4199;BME280;2113;50.946;14.610;2022-08-27T09:31:36;96726.81;;;30.79;44.18
4199;BME280;2113;50.946;14.610;2022-08-27T09:34:07;96710.72;;;33.93;37.54
4199;BME280;2113;50.946;14.610;2022-08-27T09:36:47;96719.53;;;33.55;36.47
4199;BME280;2113;50.946;14.610;2022-08-27T09:39:16;96718.94;;;33.33;37.26
4199;BME280;2113;50.946;14.610;2022-08-27T09:41:48;96719.34;;;33.10;38.26
4199;BME280;2113;50.946;14.610;2022-08-27T09:44:19;96720.75;;;32.66;38.04
4199;BME280;2113;50.946;14.610;2022-08-27T09:46:56;96719.31;;;31.74;39.16
4199;BME280;2113;50.946;14.610;2022-08-27T09:49:25;96723.78;;;28.88;45.95
4199;BME280;2113;50.946;14.610;2022-08-27T09:51:54;96719.13;;;29.05;46.20
4199;BME280;2113;50.946;14.610;2022-08-27T09:54:26;96719.56;;;29.17;46.59
4199;BME280;2113;50.946;14.610;2022-08-27T09:56:56;96714.25;;;28.17;49.03
4199;BME280;2113;50.946;14.610;2022-08-27T09:59:26;96719.81;;;27.99;50.85
4199;BME280;2113;50.946;14.610;2022-08-27T10:02:04;96718.59;;;27.62;51.26
4199;BME280;2113;50.946;14.610;2022-08-27T10:04:39;96727.19;;;26.00;55.36
4199;BME280;2113;50.946;14.610;2022-08-27T10:07:23;96726.13;;;25.58;57.07
4199;BME280;2113;50.946;14.610;2022-08-27T10:09:58;96731.78;;;25.29;56.21
4199;BME280;2113;50.946;14.610;2022-08-27T10:12:32;96738.91;;;24.84;58.02
4199;BME280;2113;50.946;14.610;2022-08-27T10:15:05;96744.75;;;24.88;59.65
4199;BME280;2113;50.946;14.610;2022-08-27T10:17:45;96746.13;;;24.56;61.25
4199;BME280;2113;50.946;14.610;2022-08-27T10:20:23;96740.53;;;24.49;60.65
4199;BME280;2113;50.946;14.610;2022-08-27T10:23:05;96744.38;;;24.65;59.84
4199;BME280;2113;50.946;14.610;2022-08-27T10:25:43;96740.44;;;25.31;56.87
4199;BME280;2113;50.946;14.610;2022-08-27T10:28:22;96740.34;;;25.75;56.75
4199;BME280;2113;50.946;14.610;2022-08-27T10:31:08;96738.19;;;28.02;50.39
4199;BME280;2113;50.946;14.610;2022-08-27T10:33:53;96746.34;;;27.20;51.84
4199;BME280;2113;50.946;14.610;2022-08-27T10:36:38;96748.03;;;26.80;52.68
4199;BME280;2113;50.946;14.610;2022-08-27T10:39:19;96746.97;;;27.71;51.21
4199;BME280;2113;50.946;14.610;2022-08-27T10:42:11;96749.69;;;26.97;52.42
4199;BME280;2113;50.946;14.610;2022-08-27T10:44:46;96742.78;;;27.68;50.91
4199;BME280;2113;50.946;14.610;2022-08-27T10:47:26;96743.88;;;27.99;49.74
4199;BME280;2113;50.946;14.610;2022-08-27T10:50:02;96742.22;;;29.06;49.08
4199;BME280;2113;50.946;14.610;2022-08-27T10:52:36;96739.84;;;29.64;46.61
4199;BME280;2113;50.946;14.610;2022-08-27T10:55:11;96741.63;;;29.19;47.84
4199;BME280;2113;50.946;14.610;2022-08-27T10:58:01;96741.63;;;30.02;43.86
4199;BME280;2113;50.946;14.610;2022-08-27T11:00:38;96747.59;;;31.41;43.89
4199;BME280;2113;50.946;14.610;2022-08-27T11:03:10;96746.69;;;29.82;44.80
4199;BME280;2113;50.946;14.610;2022-08-27T11:05:42;96746.31;;;27.61;49.59
4199;BME280;2113;50.946;14.610;2022-08-27T11:08:15;96744.69;;;27.35;49.59
4199;BME280;2113;50.946;14.610;2022-08-27T11:10:47;96734.72;;;29.25;46.93
4199;BME280;2113;50.946;14.610;2022-08-27T11:13:23;96743.28;;;30.03;44.34
4199;BME280;2113;50.946;14.610;2022-08-27T11:15:58;96739.28;;;31.36;43.37
4199;BME280;2113;50.946;14.610;2022-08-27T11:18:36;96749.72;;;30.38;45.00
4199;BME280;2113;50.946;14.610;2022-08-27T11:21:13;96749.16;;;30.64;44.28
4199;BME280;2113;50.946;14.610;2022-08-27T11:23:45;96749.44;;;31.13;44.40
4199;BME280;2113;50.946;14.610;2022-08-27T11:26:15;96748.56;;;29.81;45.87
4199;BME280;2113;50.946;14.610;2022-08-27T11:28:45;96747.13;;;28.80;48.02
4199;BME280;2113;50.946;14.610;2022-08-27T11:31:20;96746.22;;;29.48;48.59
4199;BME280;2113;50.946;14.610;2022-08-27T11:33:58;96742.63;;;30.16;46.45
4199;BME280;2113;50.946;14.610;2022-08-27T11:36:54;96741.59;;;30.32;45.43
4199;BME280;2113;50.946;14.610;2022-08-27T11:39:38;96743.66;;;28.94;49.66
4199;BME280;2113;50.946;14.610;2022-08-27T11:42:21;96740.69;;;27.39;50.88
4199;BME280;2113;50.946;14.610;2022-08-27T11:44:55;96759.13;;;25.91;55.84
4199;BME280;2113;50.946;14.610;2022-08-27T11:47:25;96766.69;;;25.86;56.93
4199;BME280;2113;50.946;14.610;2022-08-27T11:49:56;96756.84;;;26.13;55.90
4199;BME280;2113;50.946;14.610;2022-08-27T11:52:28;96748.06;;;27.85;52.11
4199;BME280;2113;50.946;14.610;2022-08-27T11:55:10;96753.47;;;27.60;51.15
4199;BME280;2113;50.946;14.610;2022-08-27T11:57:39;96760.38;;;27.13;53.86
4199;BME280;2113;50.946;14.610;2022-08-27T12:00:15;96753.97;;;26.06;55.39
4199;BME280;2113;50.946;14.610;2022-08-27T12:02:44;96759.28;;;25.72;55.58
4199;BME280;2113;50.946;14.610;2022-08-27T12:05:34;96760.63;;;26.45;56.41
4199;BME280;2113;50.946;14.610;2022-08-27T12:08:15;96747.81;;;26.56;55.20
4199;BME280;2113;50.946;14.610;2022-08-27T12:11:12;96751.31;;;26.57;53.93
4199;BME280;2113;50.946;14.610;2022-08-27T12:13:51;96746.56;;;26.18;55.45
4199;BME280;2113;50.946;14.610;2022-08-27T12:16:27;96749.69;;;27.05;53.72
4199;BME280;2113;50.946;14.610;2022-08-27T12:19:08;96737.50;;;27.44;51.87
4199;BME280;2113;50.946;14.610;2022-08-27T12:21:46;96732.56;;;27.88;52.41
4199;BME280;2113;50.946;14.610;2022-08-27T12:27:30;96734.50;;;28.03;51.23
4199;BME280;2113;50.946;14.610;2022-08-27T12:30:21;96743.88;;;27.26;50.80
4199;BME280;2113;50.946;14.610;2022-08-27T12:32:50;96732.44;;;27.65;50.12
4199;BME280;2113;50.946;14.610;2022-08-27T12:35:25;96739.00;;;27.22;51.86
4199;BME280;2113;50.946;14.610;2022-08-27T12:38:07;96742.59;;;26.30;54.88
4199;BME280;2113;50.946;14.610;2022-08-27T12:40:45;96736.50;;;25.95;56.59
4199;BME280;2113;50.946;14.610;2022-08-27T12:43:18;96748.06;;;25.26;57.36
4199;BME280;2113;50.946;14.610;2022-08-27T12:45:49;96748.63;;;25.64;57.00
4199;BME280;2113;50.946;14.610;2022-08-27T12:48:19;96736.66;;;25.68;57.04
4199;BME280;2113;50.946;14.610;2022-08-27T12:50:51;96733.84;;;26.04;56.16
4199;BME280;2113;50.946;14.610;2022-08-27T12:53:28;96734.63;;;26.47;55.10
4199;BME280;2113;50.946;14.610;2022-08-27T12:56:19;96731.25;;;26.36;53.54
4199;BME280;2113;50.946;14.610;2022-08-27T12:58:55;96736.69;;;26.78;52.87
4199;BME280;2113;50.946;14.610;2022-08-27T13:01:34;96735.53;;;26.13;54.33
4199;BME280;2113;50.946;14.610;2022-08-27T13:04:18;96732.72;;;25.80;55.93
4199;BME280;2113;50.946;14.610;2022-08-27T13:06:48;96736.25;;;25.54;57.07
4199;BME280;2113;50.946;14.610;2022-08-27T13:09:24;96744.94;;;25.12;58.35
4199;BME280;2113;50.946;14.610;2022-08-27T13:11:55;96744.25;;;25.10;58.77
4199;BME280;2113;50.946;14.610;2022-08-27T13:14:26;96735.00;;;25.67;57.88
4199;BME280;2113;50.946;14.610;2022-08-27T13:16:56;96738.72;;;26.08;56.72
4199;BME280;2113;50.946;14.610;2022-08-27T13:19:27;96743.59;;;26.37;54.36
4199;BME280;2113;50.946;14.610;2022-08-27T13:21:58;96740.94;;;26.46;55.21
4199;BME280;2113;50.946;14.610;2022-08-27T13:24:29;96740.66;;;26.65;54.90
4199;BME280;2113;50.946;14.610;2022-08-27T13:27:01;96729.13;;;27.63;52.91
4199;BME280;2113;50.946;14.610;2022-08-27T13:29:29;96726.88;;;29.00;49.83
4199;BME280;2113;50.946;14.610;2022-08-27T13:31:59;96726.06;;;28.54;48.98
4199;BME280;2113;50.946;14.610;2022-08-27T13:34:32;96724.38;;;27.90;50.83
4199;BME280;2113;50.946;14.610;2022-08-27T13:37:03;96726.34;;;27.32;51.48
4199;BME280;2113;50.946;14.610;2022-08-27T13:39:33;96729.66;;;27.09;52.47